createdAt,value
2022-08-16T00:01:34.073Z,93.16
2022-08-16T00:04:05.333Z,93.45
2022-08-16T00:06:34.285Z,93.05
2022-08-16T00:09:06.083Z,92.12
2022-08-16T00:11:35.148Z,91.85
2022-08-16T00:14:10.326Z,92.12
2022-08-16T00:17:06.561Z,92.03
2022-08-16T00:19:41.016Z,91.56
2022-08-16T00:22:13.652Z,89.93
2022-08-16T00:24:46.819Z,88.98
2022-08-16T00:27:17.382Z,88.31
2022-08-16T00:29:46.464Z,86.41
2022-08-16T00:32:18.231Z,84.31
2022-08-16T00:34:53.567Z,83.59
2022-08-16T00:37:57.237Z,83.06
2022-08-16T00:40:43.612Z,82.92
2022-08-16T00:43:43.245Z,82.90
2022-08-16T00:46:33.573Z,82.84
2022-08-16T00:49:17.689Z,82.89
2022-08-16T00:51:54.830Z,82.69
2022-08-16T00:54:31.181Z,82.09
2022-08-16T00:57:04.153Z,81.23
2022-08-16T00:59:36.819Z,81.29
2022-08-16T01:02:46.870Z,81.18
2022-08-16T01:05:12.089Z,81.39
2022-08-16T01:07:51.919Z,81.53
2022-08-16T01:10:31.457Z,81.96
2022-08-16T01:13:15.260Z,81.73
2022-08-16T01:15:52.763Z,81.47
2022-08-16T01:18:39.402Z,81.33
2022-08-16T01:21:22.214Z,81.13
2022-08-16T01:24:04.938Z,80.85
2022-08-16T01:27:03.752Z,80.70
2022-08-16T01:29:59.680Z,80.63
2022-08-16T01:32:34.530Z,80.89
2022-08-16T01:35:20.696Z,81.17
2022-08-16T01:37:54.685Z,80.97
2022-08-16T01:40:30.871Z,81.14
2022-08-16T01:43:00.278Z,81.11
2022-08-16T01:45:40.787Z,81.16
2022-08-16T01:48:19.651Z,81.41
2022-08-16T01:51:16.310Z,81.74
2022-08-16T01:53:42.172Z,81.97
2022-08-16T01:56:28.024Z,82.10
2022-08-16T01:59:02.600Z,82.24
2022-08-16T02:01:34.706Z,82.20
2022-08-16T02:04:11.007Z,81.86
2022-08-16T02:06:45.931Z,81.91
2022-08-16T02:09:17.936Z,81.63
2022-08-16T02:11:53.679Z,81.88
2022-08-16T02:14:27.356Z,82.10
2022-08-16T02:17:02.378Z,82.22
2022-08-16T02:19:58.522Z,81.98
2022-08-16T02:22:34.478Z,82.11
2022-08-16T02:25:14.748Z,82.02
2022-08-16T02:27:50.767Z,82.29
2022-08-16T02:30:36.088Z,82.69
2022-08-16T02:33:15.417Z,82.93
2022-08-16T02:35:53.835Z,82.52
2022-08-16T02:38:31.595Z,82.53
2022-08-16T02:41:09.584Z,82.31
2022-08-16T02:43:40.064Z,82.17
2022-08-16T02:46:10.240Z,81.77
2022-08-16T02:48:49.121Z,81.62
2022-08-16T02:51:19.343Z,81.14
2022-08-16T02:53:52.897Z,81.04
2022-08-16T02:56:23.019Z,81.00
2022-08-16T02:58:53.711Z,81.14
2022-08-16T03:01:33.775Z,80.92
2022-08-16T03:04:40.838Z,81.14
2022-08-16T03:07:05.422Z,81.32
2022-08-16T03:09:39.929Z,81.01
2022-08-16T03:12:16.363Z,81.61
2022-08-16T03:14:48.062Z,81.88
2022-08-16T03:17:19.379Z,82.09
2022-08-16T03:20:00.002Z,82.34
2022-08-16T03:22:33.550Z,82.23
2022-08-16T03:25:09.656Z,80.99
2022-08-16T03:27:41.171Z,80.31
2022-08-16T03:30:24.076Z,80.27
2022-08-16T03:32:56.449Z,80.76
2022-08-16T03:35:32.759Z,81.42
2022-08-16T03:38:32.644Z,81.06
2022-08-16T03:41:14.391Z,80.86
2022-08-16T03:43:57.679Z,81.10
2022-08-16T03:46:47.702Z,81.12
2022-08-16T03:49:37.089Z,80.82
2022-08-16T03:52:08.172Z,81.44
2022-08-16T03:54:38.387Z,81.18
2022-08-16T03:57:23.146Z,81.17
2022-08-16T03:59:52.238Z,81.04
2022-08-16T04:02:22.186Z,81.11
2022-08-16T04:04:54.288Z,80.88
2022-08-16T04:07:25.989Z,80.85
2022-08-16T04:09:54.777Z,80.44
2022-08-16T04:12:52.467Z,80.22
2022-08-16T04:15:17.589Z,80.08
2022-08-16T04:18:02.256Z,80.43
2022-08-16T04:20:33.858Z,80.66
2022-08-16T04:23:08.360Z,81.43
2022-08-16T04:25:39.773Z,81.57
2022-08-16T04:28:29.310Z,81.78
2022-08-16T04:31:00.456Z,82.39
2022-08-16T04:33:30.168Z,83.33
2022-08-16T04:36:04.857Z,83.84
2022-08-16T04:38:35.038Z,84.04
2022-08-16T04:41:04.320Z,84.72
2022-08-16T04:43:38.614Z,84.81
2022-08-16T04:46:29.944Z,84.95
2022-08-16T04:49:05.403Z,84.43
2022-08-16T04:51:36.274Z,84.50
2022-08-16T04:54:05.268Z,84.10
2022-08-16T04:56:42.808Z,83.84
2022-08-16T04:59:15.508Z,84.03
2022-08-16T05:01:58.232Z,83.97
2022-08-16T05:04:30.131Z,83.24
2022-08-16T05:06:59.904Z,82.89
2022-08-16T05:09:45.131Z,82.65
2022-08-16T05:12:22.065Z,81.93
2022-08-16T05:15:02.747Z,81.89
2022-08-16T05:17:34.836Z,81.52
2022-08-16T05:20:35.560Z,81.05
2022-08-16T05:22:59.621Z,80.63
2022-08-16T05:25:41.009Z,80.75
2022-08-16T05:28:18.935Z,80.61
2022-08-16T05:30:56.071Z,79.98
2022-08-16T05:33:27.304Z,79.16
2022-08-16T05:35:58.358Z,79.21
2022-08-16T05:38:39.220Z,78.90
2022-08-16T05:41:13.797Z,77.93
2022-08-16T05:43:47.694Z,77.25
2022-08-16T05:46:43.683Z,76.68
2022-08-16T05:49:22.340Z,75.95
2022-08-16T05:51:57.559Z,75.18
2022-08-16T05:54:28.918Z,75.19
2022-08-16T05:57:00.238Z,74.63
2022-08-16T05:59:29.876Z,73.82
2022-08-16T06:01:59.306Z,74.35
2022-08-16T06:04:34.904Z,73.91
2022-08-16T06:07:07.582Z,74.24
2022-08-16T06:09:44.406Z,74.17
2022-08-16T06:12:26.803Z,72.25
2022-08-16T06:15:04.267Z,72.06
2022-08-16T06:17:41.700Z,72.40
2022-08-16T06:20:24.166Z,72.40
2022-08-16T06:23:03.699Z,72.51
2022-08-16T06:25:52.882Z,72.62
2022-08-16T06:28:34.798Z,72.84
2022-08-16T06:31:09.824Z,73.10
2022-08-16T06:33:44.878Z,73.30
2022-08-16T06:36:17.207Z,73.63
2022-08-16T06:38:56.994Z,73.62
2022-08-16T06:41:44.403Z,72.85
2022-08-16T06:44:24.633Z,71.91
2022-08-16T06:46:58.696Z,70.62
2022-08-16T06:49:32.303Z,69.97
2022-08-16T06:52:02.782Z,68.63
2022-08-16T06:54:37.117Z,68.70
2022-08-16T06:57:16.470Z,67.87
2022-08-16T06:59:52.366Z,67.16
2022-08-16T07:02:32.884Z,67.91
2022-08-16T07:05:14.940Z,69.26
2022-08-16T07:07:52.424Z,69.18
2022-08-16T07:10:25.743Z,69.81
2022-08-16T07:13:04.376Z,70.11
2022-08-16T07:15:50.830Z,69.31
2022-08-16T07:18:24.573Z,69.79
2022-08-16T07:20:56.045Z,69.71
2022-08-16T07:23:37.224Z,69.44
2022-08-16T07:26:25.192Z,69.01
2022-08-16T07:28:55.609Z,68.67
2022-08-16T07:31:25.103Z,68.35
2022-08-16T07:34:10.012Z,66.76
2022-08-16T07:36:39.496Z,66.46
2022-08-16T07:39:09.186Z,66.15
2022-08-16T07:41:42.078Z,66.51
2022-08-16T07:44:16.373Z,66.16
2022-08-16T07:46:47.328Z,66.38
2022-08-16T07:49:25.718Z,66.63
2022-08-16T07:52:02.214Z,66.14
2022-08-16T07:54:48.941Z,66.52
2022-08-16T07:57:18.942Z,66.20
2022-08-16T07:59:48.777Z,66.87
2022-08-16T08:02:20.308Z,67.26
2022-08-16T08:04:56.907Z,66.71
2022-08-16T08:07:29.596Z,66.37
2022-08-16T08:10:05.921Z,65.35
2022-08-16T08:12:41.239Z,65.21
2022-08-16T08:15:15.082Z,64.28
2022-08-16T08:17:54.823Z,64.84
2022-08-16T08:20:30.261Z,65.01
2022-08-16T08:23:03.154Z,65.49
2022-08-16T08:25:53.887Z,65.18
2022-08-16T08:28:27.979Z,66.30
2022-08-16T08:31:08.305Z,66.24
2022-08-16T08:33:43.795Z,67.42
2022-08-16T08:36:33.268Z,77.47
2022-08-16T08:39:55.391Z,90.49
2022-08-16T08:42:27.046Z,90.76
2022-08-16T08:44:57.271Z,94.08
2022-08-16T08:47:26.168Z,98.11
2022-08-16T08:49:57.012Z,99.62
2022-08-16T08:52:34.775Z,100.00
2022-08-16T08:55:10.919Z,100.00
2022-08-16T08:57:46.509Z,100.00
2022-08-16T09:00:50.179Z,100.00
2022-08-16T09:03:20.653Z,100.00
2022-08-16T09:05:54.566Z,100.00
2022-08-16T09:08:26.562Z,100.00
2022-08-16T09:11:03.158Z,100.00
2022-08-16T09:13:33.443Z,100.00
2022-08-16T09:16:03.439Z,100.00
2022-08-16T09:18:35.963Z,100.00
2022-08-16T09:21:09.304Z,100.00
2022-08-16T09:23:40.182Z,100.00
2022-08-16T09:26:44.292Z,100.00
2022-08-16T09:29:14.949Z,100.00
2022-08-16T09:31:53.319Z,100.00
2022-08-16T09:34:23.525Z,100.00
2022-08-16T09:36:54.541Z,100.00
2022-08-16T09:39:23.607Z,100.00
2022-08-16T09:41:56.554Z,100.00
2022-08-16T09:45:10.825Z,100.00
2022-08-16T09:47:15.834Z,100.00
2022-08-16T09:49:44.870Z,100.00
2022-08-16T09:52:22.349Z,100.00
2022-08-16T09:54:51.415Z,100.00
2022-08-16T09:57:20.320Z,100.00
2022-08-16T09:59:56.185Z,100.00
2022-08-16T10:02:27.867Z,100.00
2022-08-16T10:04:58.984Z,100.00
2022-08-16T10:07:44.417Z,100.00
2022-08-16T10:10:18.652Z,100.00
2022-08-16T10:13:08.966Z,100.00
2022-08-16T10:15:41.741Z,100.00
2022-08-16T10:19:02.320Z,100.00
2022-08-16T10:21:02.208Z,100.00
2022-08-16T10:23:31.143Z,100.00
2022-08-16T10:27:16.245Z,99.90
2022-08-16T10:28:50.325Z,98.77
2022-08-16T10:31:44.450Z,97.97
2022-08-16T10:34:24.048Z,97.76
2022-08-16T10:36:57.715Z,98.55
2022-08-16T10:39:26.563Z,94.73
2022-08-16T10:42:14.441Z,94.56
2022-08-16T10:44:53.758Z,93.03
2022-08-16T10:47:23.958Z,90.84
2022-08-16T10:49:53.399Z,91.46
2022-08-16T10:52:24.481Z,89.29
2022-08-16T10:55:40.620Z,87.08
2022-08-16T10:57:42.179Z,85.55
2022-08-16T11:00:21.497Z,85.08
2022-08-16T11:02:59.578Z,84.28
2022-08-16T11:08:35.878Z,82.31
2022-08-16T11:11:11.480Z,81.15
2022-08-16T11:14:10.814Z,81.83
2022-08-16T11:19:28.316Z,81.73
2022-08-16T11:22:39.394Z,80.84
2022-08-16T11:25:11.795Z,76.64
2022-08-16T11:27:38.775Z,74.60
2022-08-16T11:30:12.320Z,73.66
2022-08-16T11:32:48.989Z,71.08
2022-08-16T11:38:47.120Z,71.99
2022-08-16T11:41:07.352Z,69.82
2022-08-16T11:43:40.696Z,66.42
2022-08-16T11:46:42.880Z,64.38
2022-08-16T11:49:03.118Z,64.14
2022-08-16T11:51:36.833Z,64.60
2022-08-16T11:54:09.033Z,65.27
2022-08-16T11:56:57.708Z,66.48
2022-08-16T11:59:30.252Z,68.66
2022-08-16T12:02:30.709Z,65.11
2022-08-16T12:04:51.778Z,66.56
2022-08-16T12:07:23.559Z,67.44
2022-08-16T12:09:54.146Z,66.47
2022-08-16T12:12:24.004Z,65.03
2022-08-16T12:14:59.371Z,63.62
2022-08-16T12:17:32.722Z,64.63
2022-08-16T12:20:02.712Z,64.83
2022-08-16T12:22:36.566Z,63.42
2022-08-16T12:25:08.459Z,61.50
2022-08-16T12:27:39.267Z,58.67
2022-08-16T12:30:12.699Z,53.38
2022-08-16T12:32:52.988Z,52.89
2022-08-16T12:35:24.923Z,52.90
2022-08-16T12:37:56.828Z,50.93
2022-08-16T12:40:32.560Z,51.46
2022-08-16T12:43:05.417Z,49.38
2022-08-16T12:45:39.997Z,47.83
2022-08-16T12:48:34.288Z,46.56
2022-08-16T12:51:13.462Z,43.35
2022-08-16T12:53:54.413Z,43.94
2022-08-16T12:56:28.705Z,45.61
2022-08-16T12:58:59.524Z,45.54
2022-08-16T13:01:33.583Z,45.63
2022-08-16T13:04:21.101Z,44.41
2022-08-16T13:06:54.683Z,42.36
2022-08-16T13:09:26.428Z,42.29
2022-08-16T13:12:16.862Z,42.02
2022-08-16T13:14:47.569Z,42.79
2022-08-16T13:17:29.712Z,42.63
2022-08-16T13:20:08.880Z,42.91
2022-08-16T13:22:46.120Z,40.57
2022-08-16T13:25:21.131Z,40.84
2022-08-16T13:28:01.790Z,44.05
2022-08-16T13:30:42.405Z,44.00
2022-08-16T13:33:18.212Z,45.43
2022-08-16T13:35:55.817Z,47.01
2022-08-16T13:38:37.023Z,46.34
2022-08-16T13:41:09.540Z,45.33
2022-08-16T13:43:38.866Z,45.37
2022-08-16T13:46:08.552Z,46.09
2022-08-16T13:48:43.977Z,44.50
2022-08-16T13:51:18.494Z,43.38
2022-08-16T13:53:59.074Z,42.94
2022-08-16T13:56:37.669Z,41.57
2022-08-16T13:59:20.401Z,40.98
2022-08-16T14:01:59.475Z,41.75
2022-08-16T14:04:39.453Z,41.82
2022-08-16T14:07:13.455Z,41.54
2022-08-16T14:09:50.338Z,41.04
2022-08-16T14:12:30.080Z,41.63
2022-08-16T14:15:00.116Z,41.86
2022-08-16T14:17:29.933Z,42.03
2022-08-16T14:20:08.611Z,42.00
2022-08-16T14:22:52.354Z,41.94
2022-08-16T14:25:26.822Z,42.44
2022-08-16T14:27:55.971Z,42.95
2022-08-16T14:30:25.671Z,43.27
2022-08-16T14:32:55.203Z,43.97
2022-08-16T14:35:48.167Z,43.44
2022-08-16T14:38:23.531Z,44.05
2022-08-16T14:40:55.599Z,44.38
2022-08-16T14:43:29.850Z,44.00
2022-08-16T14:45:59.737Z,43.26
2022-08-16T14:48:28.549Z,43.02
2022-08-16T14:50:58.202Z,42.47
2022-08-16T14:53:27.519Z,42.56
2022-08-16T14:55:56.379Z,41.73
2022-08-16T14:58:34.563Z,41.09
2022-08-16T15:01:09.999Z,40.90
2022-08-16T15:03:44.579Z,39.42
2022-08-16T15:06:14.475Z,37.85
2022-08-16T15:08:45.231Z,37.45
2022-08-16T15:11:15.168Z,37.69
2022-08-16T15:13:46.486Z,37.77
2022-08-16T15:16:16.189Z,37.66
2022-08-16T15:18:46.698Z,37.09
2022-08-16T15:21:15.993Z,37.43
2022-08-16T15:23:45.097Z,35.87
2022-08-16T15:26:34.810Z,34.86
2022-08-16T15:29:04.102Z,37.44
2022-08-16T15:31:32.752Z,37.23
2022-08-16T15:34:04.228Z,37.16
2022-08-16T15:36:33.017Z,35.47
2022-08-16T15:39:05.524Z,35.38
2022-08-16T15:41:43.138Z,36.82
2022-08-16T15:44:22.632Z,37.83
2022-08-16T15:46:58.968Z,39.84
2022-08-16T15:49:38.158Z,38.80
2022-08-16T15:52:18.331Z,39.68
2022-08-16T15:54:53.117Z,41.81
2022-08-16T15:57:28.245Z,45.02
2022-08-16T16:00:04.309Z,45.40
2022-08-16T16:02:41.207Z,46.13
2022-08-16T16:05:10.518Z,47.39
2022-08-16T16:07:40.768Z,48.24
2022-08-16T16:10:29.416Z,49.30
2022-08-16T16:13:05.790Z,49.13
2022-08-16T16:15:46.632Z,51.62
2022-08-16T16:18:16.978Z,52.83
2022-08-16T16:20:54.640Z,53.81
2022-08-16T16:23:54.966Z,52.64
2022-08-16T16:26:28.835Z,52.76
2022-08-16T16:29:08.314Z,55.43
2022-08-16T16:31:57.182Z,57.02
2022-08-16T16:34:32.288Z,56.37
2022-08-16T16:37:05.310Z,57.75
2022-08-16T16:39:38.817Z,59.03
2022-08-16T16:42:11.015Z,57.86
2022-08-16T16:45:01.744Z,58.32
2022-08-16T16:47:40.653Z,58.99
2022-08-16T16:50:12.599Z,62.48
2022-08-16T16:52:43.787Z,62.27
2022-08-16T16:55:14.658Z,62.66
2022-08-16T16:58:03.237Z,63.43
2022-08-16T17:00:38.266Z,63.00
2022-08-16T17:03:57.889Z,63.87
2022-08-16T17:06:26.681Z,65.09
2022-08-16T17:08:55.641Z,65.12
2022-08-16T17:11:25.724Z,67.10
2022-08-16T17:13:58.424Z,66.60
2022-08-16T17:16:32.979Z,67.16
2022-08-16T17:19:16.094Z,68.80
2022-08-16T17:21:48.411Z,69.56
2022-08-16T17:24:20.495Z,70.54
2022-08-16T17:26:56.017Z,71.34
2022-08-16T17:29:30.939Z,71.18
2022-08-16T17:32:33.108Z,73.01
2022-08-16T17:34:50.923Z,72.05
2022-08-16T17:37:22.126Z,73.52
2022-08-16T17:40:19.284Z,75.97
2022-08-16T17:42:55.457Z,76.81
2022-08-16T17:45:25.525Z,76.99
2022-08-16T17:47:54.761Z,77.50
2022-08-16T17:50:23.462Z,77.55
2022-08-16T17:52:55.793Z,78.16
2022-08-16T17:55:31.997Z,78.58
2022-08-16T17:58:00.852Z,78.98
2022-08-16T18:00:42.040Z,78.78
2022-08-16T18:04:06.716Z,78.24
2022-08-16T18:06:16.982Z,78.79
2022-08-16T18:08:50.574Z,79.87
2022-08-16T18:11:26.195Z,80.24
2022-08-16T18:13:55.671Z,80.37
2022-08-16T18:16:24.326Z,81.49
2022-08-16T18:18:53.043Z,81.70
2022-08-16T18:21:40.466Z,81.77
2022-08-16T18:24:11.715Z,82.43
2022-08-16T18:26:40.649Z,82.27
2022-08-16T18:29:09.408Z,82.39
2022-08-16T18:31:38.988Z,82.82
2022-08-16T18:34:07.795Z,83.23
2022-08-16T18:36:37.403Z,84.00
2022-08-16T18:39:06.479Z,84.01
2022-08-16T18:41:37.426Z,82.19
2022-08-16T18:44:26.849Z,83.37
2022-08-16T18:46:57.993Z,84.07
2022-08-16T18:49:26.729Z,84.98
2022-08-16T18:51:59.873Z,85.96
2022-08-16T18:54:30.792Z,86.26
2022-08-16T18:57:43.362Z,86.50
2022-08-16T19:00:14.962Z,87.52
2022-08-16T19:02:58.388Z,88.04
2022-08-16T19:05:31.446Z,88.05
2022-08-16T19:08:02.425Z,88.12
2022-08-16T19:10:33.788Z,88.29
2022-08-16T19:13:08.817Z,88.90
2022-08-16T19:15:42.895Z,89.85
2022-08-16T19:18:12.895Z,89.57
2022-08-16T19:20:44.286Z,89.32
2022-08-16T19:23:21.067Z,89.53
2022-08-16T19:26:02.478Z,89.09
2022-08-16T19:28:50.599Z,89.16
2022-08-16T19:31:33.351Z,89.30
2022-08-16T19:34:04.607Z,89.08
2022-08-16T19:36:39.851Z,90.27
2022-08-16T19:39:15.744Z,90.72
2022-08-16T19:41:53.324Z,91.07
2022-08-16T19:44:23.867Z,91.23
2022-08-16T19:46:52.608Z,91.48
2022-08-16T19:49:21.392Z,91.75
2022-08-16T19:51:50.824Z,91.91
2022-08-16T19:54:20.171Z,91.98
2022-08-16T19:56:48.812Z,91.66
2022-08-16T19:59:19.900Z,90.67
2022-08-16T20:01:53.604Z,89.96
2022-08-16T20:04:24.765Z,90.52
2022-08-16T20:06:54.593Z,90.53
2022-08-16T20:09:25.104Z,89.64
2022-08-16T20:11:54.209Z,89.04
2022-08-16T20:14:25.581Z,89.26
2022-08-16T20:16:58.885Z,88.62
2022-08-16T20:19:32.517Z,89.80
2022-08-16T20:22:52.464Z,89.09
2022-08-16T20:25:29.187Z,90.35
2022-08-16T20:28:00.107Z,95.01
2022-08-16T20:30:29.447Z,95.57
2022-08-16T20:32:58.081Z,98.13
2022-08-16T20:35:28.710Z,99.89
2022-08-16T20:37:57.374Z,100.00
2022-08-16T20:40:33.707Z,100.00
2022-08-16T20:43:09.687Z,100.00
2022-08-16T20:45:40.672Z,100.00
2022-08-16T20:48:09.588Z,100.00
2022-08-16T20:50:39.165Z,99.74
2022-08-16T20:53:08.627Z,99.62
2022-08-16T20:55:40.310Z,99.84
2022-08-16T20:58:09.001Z,100.00
2022-08-16T21:00:38.684Z,99.53
2022-08-16T21:03:10.986Z,100.00
2022-08-16T21:05:39.985Z,100.00
2022-08-16T21:08:52.432Z,100.00
2022-08-16T21:10:58.877Z,100.00
2022-08-16T21:13:30.961Z,100.00
2022-08-16T21:16:02.615Z,100.00
2022-08-16T21:18:31.279Z,100.00
2022-08-16T21:20:59.957Z,100.00
2022-08-16T21:23:28.613Z,100.00
2022-08-16T21:25:59.341Z,100.00
2022-08-16T21:28:41.348Z,100.00
2022-08-16T21:31:12.801Z,100.00
2022-08-16T21:33:43.494Z,100.00
2022-08-16T21:36:13.255Z,100.00
2022-08-16T21:38:41.981Z,100.00
2022-08-16T21:41:13.053Z,100.00
2022-08-16T21:43:42.288Z,100.00
2022-08-16T21:46:11.152Z,100.00
2022-08-16T21:48:40.729Z,100.00
2022-08-16T21:51:15.844Z,100.00
2022-08-16T21:53:45.084Z,100.00
2022-08-16T21:56:17.221Z,100.00
2022-08-16T21:58:53.250Z,100.00
2022-08-16T22:01:23.798Z,100.00
2022-08-16T22:04:01.561Z,100.00
2022-08-16T22:06:43.300Z,100.00
2022-08-16T22:09:16.838Z,100.00
2022-08-16T22:11:45.547Z,100.00
2022-08-16T22:14:14.186Z,100.00
2022-08-16T22:16:43.708Z,100.00
2022-08-16T22:19:13.481Z,100.00
2022-08-16T22:21:42.243Z,100.00
2022-08-16T22:24:10.953Z,100.00
2022-08-16T22:26:43.025Z,100.00
2022-08-16T22:29:15.312Z,100.00
2022-08-16T22:31:44.940Z,100.00
2022-08-16T22:34:14.305Z,100.00
2022-08-16T22:36:43.065Z,100.00
2022-08-16T22:39:14.784Z,100.00
2022-08-16T22:41:45.951Z,100.00
2022-08-16T22:44:14.761Z,100.00
2022-08-16T22:46:43.379Z,100.00
2022-08-16T22:49:13.310Z,100.00
2022-08-16T22:51:42.128Z,100.00
2022-08-16T22:54:45.888Z,100.00
2022-08-16T22:57:01.190Z,100.00
2022-08-16T22:59:32.394Z,100.00
2022-08-16T23:02:06.498Z,100.00
2022-08-16T23:04:35.218Z,100.00
2022-08-16T23:07:05.825Z,100.00
2022-08-16T23:09:34.652Z,100.00
2022-08-16T23:12:07.466Z,100.00
2022-08-16T23:14:35.889Z,100.00
2022-08-16T23:17:04.778Z,100.00
2022-08-16T23:19:33.420Z,100.00
2022-08-16T23:22:02.114Z,100.00
2022-08-16T23:24:30.859Z,100.00
2022-08-16T23:27:06.087Z,100.00
2022-08-16T23:29:34.829Z,100.00
2022-08-16T23:32:11.718Z,100.00
2022-08-16T23:34:40.359Z,100.00
2022-08-16T23:37:09.515Z,100.00
2022-08-16T23:39:38.616Z,100.00
2022-08-16T23:42:52.401Z,100.00
2022-08-16T23:45:06.577Z,100.00
2022-08-16T23:47:35.218Z,100.00
2022-08-16T23:50:04.555Z,100.00
2022-08-16T23:52:45.286Z,100.00
2022-08-16T23:55:23.050Z,100.00
2022-08-16T23:57:52.359Z,100.00
